ADDS TAF Data INFO
IDs: Format: Raw Decoded Include METARs

Data at: 0159 UTC 26 Apr 2017

Region: TOP
KATL 260155Z 2602/2706 24004KT P6SM SKC
  FM261500 23006KT P6SM SKC
  FM261700 19008KT P6SM FEW250
  FM262100 17010KT P6SM SCT250
  FM270200 17008KT P6SM BKN250


KBOS 252320Z 2600/2706 07013G22KT 2SM -SHRA BR OVC006
  FM260600 07011KT 2SM SHRA BR OVC008 WS020/13035KT
  FM260900 08010KT 3SM SHRA BR OVC008 WS020/17030KT
  FM261000 08010KT 3SM -SHRA BR OVC008 WS020/16030KT
  FM261400 09008KT 2SM -RA BR OVC008
  FM261800 11007KT 3SM BR VCSH OVC008
  FM270000 08006KT 1SM -DZ BR VCSH OVC008


KBWI 260130Z 2602/2706 05010KT 2SM -DZ BR OVC004
  FM261100 36006KT 3SM BR OVC004
  FM261500 33005KT P6SM OVC008
  FM261800 33006KT P6SM OVC015
  FM262300 VRB03KT P6SM SCT025


KCLE 252325Z 2600/2706 12010G20KT P6SM SCT060
  FM260300 13008KT P6SM BKN250
  FM261500 17012G20KT P6SM SCT050


KCLT 252330Z 2600/2624 04004KT P6SM FEW040 SCT060
  FM260400 00000KT 4SM BR SCT040
  FM260900 21002KT 2SM BR SCT005 BKN050
  FM261300 22005KT P6SM FEW050
  FM261800 21007KT P6SM SCT050


KCVG 252332Z 2600/2706 16006KT P6SM SCT050
  FM260300 14005KT P6SM SCT250
  FM261500 17010KT P6SM SCT250
  FM270200 16010KT P6SM SCT200 WS020/18035KT


KDCA 252340Z 2600/2624 04012KT P6SM -DZ OVC009
  FM260300 01008KT 5SM -DZ BR OVC009
  FM260600 36006KT 4SM BR OVC004
  FM261500 33006KT P6SM OVC008
  FM261800 33005KT P6SM BKN025
  FM262100 VRB03KT P6SM SCT030


KDEN 260156Z 2602/2706 01015KT P6SM VCSH BKN035 BKN050
  TEMPO 2602/2604 4SM -RA OVC025
  FM260700 35006KT P6SM SCT050 SCT070 BKN120
  FM261100 21007KT P6SM FEW120 SCT220
  FM261600 16007KT P6SM FEW120 SCT220
  FM262000 32012KT P6SM SCT090 BKN140
  FM270300 14008KT P6SM SCT060 BKN080


KDFW 252329Z 2600/2706 17018G28KT P6SM SCT040 BKN300
  FM260400 17016G26KT P6SM BKN025
  FM260600 18015KT P6SM OVC012
  FM261400 32017G27KT P6SM VCSH OVC015
  FM261800 32019G29KT P6SM BKN025
  FM262200 32019G29KT P6SM SCT025 BKN045
  FM270200 30010KT P6SM SKC


KDTW 252328Z 2600/2706 12007KT P6SM BKN250
  FM261000 12005KT 6SM BR SCT015 BKN070
  FM261300 14013KT P6SM SCT070 BKN200
  FM261700 16013G20KT P6SM SCT050 SCT200
  FM270100 16007KT P6SM SCT250


KEWR 260149Z 2602/2706 05015G23KT 3SM -RA BR OVC009
  TEMPO 2602/2603 2SM +RA OVC006
  FM260300 04012G17KT 3SM -RA BR OVC005
  TEMPO 2603/2607 2SM -RA BR
  FM260700 05010KT 1SM -RA BR OVC003
  FM261500 03008KT 3SM BR VCSH BKN005 OVC009
  FM261800 02007KT 6SM BR BKN008 OVC015
  FM270000 VRB03KT 3/4SM BR OVC003


KFLL 260152Z 2602/2624 25010KT P6SM SCT060 BKN120
  FM260300 VRB05KT P6SM SKC
  FM261400 15006KT P6SM SCT050
  FM261800 15010KT P6SM SCT050


KIAD 260129Z 2601/2706 02007KT 3SM BR OVC007
  FM261500 33006KT P6SM BKN015
  FM261800 33004KT P6SM BKN025
  FM262000 VRB03KT P6SM SCT035


KIAH 252340Z 2600/2706 16018G23KT P6SM FEW025 SCT035 BKN040
  FM260300 17013G23KT P6SM SCT015 BKN025
  FM260600 17015KT P6SM BKN015
  FM261500 21015KT P6SM SCT015 BKN025
  FM261800 22016KT P6SM BKN030
  FM262100 30012G22KT P6SM SCT040
  FM270000 34011KT P6SM FEW080


KJFK 260149Z 2602/2706 05015G24KT 3SM -RA BR OVC006
  TEMPO 2602/2603 2SM +RA BR OVC005
  FM260300 05012G18KT 3SM -RA BR OVC005
  TEMPO 2603/2607 2SM -RA BR
  FM260700 05009KT 1SM -RA BR OVC004
  FM261500 04008KT 3SM BR VCSH OVC007
  FM261900 03008KT 6SM BR OVC008
  FM270000 VRB03KT 3/4SM BR OVC003


KLAS 252320Z 2600/2624 36015G25KT P6SM SCT150 BKN250
  FM260200 01012KT P6SM SCT250
  FM260500 31010KT P6SM SCT250
  FM261100 VRB06KT P6SM SCT250
  FM262000 23012G18KT P6SM BKN250


KLAX 252333Z 2600/2706 27020KT P6SM SCT200
  FM260300 33013KT P6SM SKC
  FM260500 26008KT P6SM SKC
  FM260800 03004KT P6SM SKC
  FM261700 28008KT P6SM SKC
  FM262000 26015KT P6SM SKC
  FM270300 26007KT 5SM BR FEW250


KLGA 260149Z 2602/2624 06018G28KT 3SM -RA BR OVC006
  TEMPO 2602/2603 2SM +RA BR OVC005
  FM260300 06014G20KT 3SM -RA BR OVC005
  TEMPO 2603/2607 2SM -RA BR
  FM260700 05009KT 1SM -RA BR OVC003
  FM261500 03009KT 3SM BR VCSH OVC006
  FM261900 03008KT 6SM BR OVC008


KMCO 252320Z 2600/2624 25008KT P6SM BKN250
  FM260400 23003KT P6SM SKC
  FM261500 22008KT P6SM SCT040


KMDW 252321Z 2600/2624 15014G20KT P6SM FEW050 BKN250
  FM260400 16012KT P6SM SCT030 BKN120
  FM261200 18014G20KT P6SM VCSH OVC040
  PROB30 2613/2616 4SM -TSRA OVC025CB
  FM262200 20015G24KT 6SM SHRA OVC030
  TEMPO 2622/2624 3SM TSRA OVC020CB


KMEM 252340Z 2600/2624 17012KT P6SM SCT250
  FM260500 18014G20KT P6SM SCT250
  FM261000 18014G20KT P6SM BKN020
  FM261300 18014G20KT P6SM OVC015
  FM261800 18016G23KT P6SM BKN025
  FM262100 18017G26KT P6SM BKN050
  FM262300 18020G28KT P6SM VCTS BKN050CB


KMIA 252335Z 2600/2624 26008KT P6SM FEW060 SCT250
  FM260300 VRB04KT P6SM SKC
  FM261400 16008KT P6SM SCT250
  FM262000 15010G18KT P6SM FEW060 SCT250
  FM262100 14008KT P6SM SCT250


KMSP 260150Z 2602/2706 03007KT 3SM -SHRA BR BKN007 OVC017
  FM260600 03009KT 5SM -RA BR OVC008
  FM261200 36012G21KT P6SM -SHRA OVC008
  FM261700 34012G18KT P6SM BKN008 OVC012
  FM262300 34010KT P6SM SCT010 BKN025


KORD 252321Z 2600/2706 15014G20KT P6SM FEW050 BKN250
  FM260400 16012KT P6SM SCT030 BKN120
  FM261200 18014G20KT P6SM VCSH OVC040
  PROB30 2613/2616 4SM -TSRA OVC025CB
  FM262200 20015G24KT 6SM SHRA OVC030
  TEMPO 2622/2702 3SM TSRA OVC020CB
  FM270200 25011KT 3SM SHRA OVC018


KPDX 260106Z 2601/2624 14007KT 6SM -RA BR SCT015 BKN020 OVC035
  TEMPO 2601/2603 4SM BR BKN020
  FM260400 16011KT 5SM -RA BR BKN025 OVC040
  FM260600 18009KT P6SM -SHRA SCT015 OVC025
  FM260900 20014KT P6SM -RA SCT015 OVC025
  FM261900 27010KT P6SM -SHRA OVC040


KPHL 260155Z 2602/2706 06012G20KT 6SM -SHRA BR OVC007
  TEMPO 2602/2604 3SM -SHRA BR OVC005
  FM260400 04010KT 5SM BR VCSH OVC005
  FM260700 04008KT 3SM BR OVC005
  FM261600 03005KT 5SM BR OVC012
  FM261800 36005KT P6SM BKN025
  FM270100 VRB03KT P6SM BKN020


KPHX 252334Z 2600/2624 28025G35KT P6SM BKN250
  TEMPO 2600/2602 6SM BLDU
  FM260300 28015G22KT P6SM SCT250
  FM260600 32008KT P6SM SCT250
  FM261400 06005KT P6SM FEW250
  FM261800 27008KT P6SM FEW250


KPIT 252338Z 2600/2706 08008KT P6SM SCT025 BKN035
  TEMPO 2600/2603 BKN025
  FM260400 VRB03KT 5SM BR SCT050
  FM261000 00000KT 3SM BR SCT015
  FM261400 16003KT P6SM SCT060


KSAN 252320Z 2600/2706 29011KT P6SM FEW015 FEW030 BKN250
  FM260200 VRB05KT P6SM SCT015 SCT250
  FM261900 26009KT P6SM FEW015 SCT250
  FM270200 VRB05KT P6SM SCT012 SCT250


KSEA 252320Z 2600/2706 20008KT P6SM -RA OVC050
  FM260600 16010KT P6SM -RA OVC040
  FM261200 18012KT P6SM -SHRA BKN025
  FM261800 21012KT P6SM VCSH BKN040


KSFO 260110Z 2601/2706 26018G24KT P6SM FEW020 FEW045 SCT070
  FM260400 28011KT P6SM FEW018 FEW050 SCT080
  FM260600 27010KT P6SM FEW015 FEW030 SCT050
  FM261200 26008KT P6SM SCT015 SCT030 BKN050
  FM261500 27014KT P6SM VCSH FEW015 SCT025 BKN030
  FM262000 26016G20KT P6SM SCT020 SCT050
  FM270100 27015KT P6SM SCT015 SCT030


KSLC 252344Z 2600/2706 28011KT P6SM SCT040 BKN070
  FM260300 15008KT P6SM SCT070 BKN120
  FM261800 20010KT P6SM VCSH SCT030 BKN070
  FM262100 18010KT P6SM -RA SCT020 BKN040
  FM270200 29012KT P6SM -RA SCT008 BKN030


KSTL 252320Z 2600/2706 16015G25KT P6SM SCT250
  FM260100 17011KT P6SM SCT250
  FM261000 17007KT P6SM VCSH BKN100
  FM261400 19009KT P6SM OVC025
  FM261900 19012KT P6SM VCTS OVC030CB
  FM270000 27010KT P6SM OVC030


KTPA 252322Z 2600/2624 28009KT P6SM FEW040
  FM260200 VRB04KT P6SM FEW250
  FM261500 19007KT P6SM FEW030 FEW250
  FM261800 22010KT P6SM FEW035 FEW250



Page loaded:  01:59 UTC  |   06:59 PM Pacific  |   07:59 PM Mountain  |   08:59 PM Central  |   09:59 PM Eastern

 

ADVISORIES

FORECASTS

FORECASTS

OBSERVATIONS

USER TOOLS

ABOUT US